createdAt,value
2018-09-20T00:01:11.352Z,22.10
2018-09-20T00:03:40.552Z,22.00
2018-09-20T00:06:09.745Z,22.00
2018-09-20T00:08:38.935Z,22.00
2018-09-20T00:11:08.451Z,22.00
2018-09-20T00:13:37.643Z,21.90
2018-09-20T00:16:06.859Z,21.80
2018-09-20T00:18:36.119Z,21.80
2018-09-20T00:21:05.371Z,21.80
2018-09-20T00:23:34.588Z,21.70
2018-09-20T00:26:03.836Z,21.60
2018-09-20T00:28:33.024Z,21.60
2018-09-20T00:31:02.636Z,21.50
2018-09-20T00:33:32.151Z,21.50
2018-09-20T00:36:01.329Z,21.40
2018-09-20T00:38:30.574Z,21.40
2018-09-20T00:40:59.775Z,21.40
2018-09-20T00:43:28.956Z,21.40
2018-09-20T00:45:58.165Z,21.30
2018-09-20T00:48:27.376Z,21.30
2018-09-20T00:50:56.696Z,21.30
2018-09-20T00:53:25.904Z,21.30
2018-09-20T00:55:55.480Z,21.20
2018-09-20T00:58:24.667Z,21.20
2018-09-20T01:00:53.988Z,21.20
2018-09-20T01:03:23.279Z,21.10
2018-09-20T01:05:52.474Z,21.10
2018-09-20T01:08:21.655Z,21.10
2018-09-20T01:10:50.883Z,21.00
2018-09-20T01:13:20.079Z,21.00
2018-09-20T01:15:49.279Z,21.00
2018-09-20T01:18:18.587Z,21.00
2018-09-20T01:20:47.809Z,21.00
2018-09-20T01:23:16.996Z,21.00
2018-09-20T01:25:46.232Z,20.90
2018-09-20T01:28:15.443Z,20.90
2018-09-20T01:30:44.662Z,20.80
2018-09-20T01:33:14.776Z,20.80
2018-09-20T01:35:43.979Z,20.90
2018-09-20T01:38:13.169Z,20.90
2018-09-20T01:40:42.928Z,20.80
2018-09-20T01:43:12.135Z,20.80
2018-09-20T01:45:41.324Z,20.70
2018-09-20T01:48:10.551Z,20.60
2018-09-20T01:50:39.735Z,20.50
2018-09-20T01:53:08.952Z,20.50
2018-09-20T01:55:39.458Z,20.40
2018-09-20T01:58:08.644Z,20.40
2018-09-20T02:00:37.829Z,20.40
2018-09-20T02:03:07.287Z,20.40
2018-09-20T02:05:36.488Z,20.30
2018-09-20T02:08:06.251Z,20.40
2018-09-20T02:10:35.492Z,20.40
2018-09-20T02:13:04.696Z,20.30
2018-09-20T02:15:33.904Z,20.20
2018-09-20T02:18:03.196Z,20.10
2018-09-20T02:20:32.395Z,20.10
2018-09-20T02:23:01.596Z,20.10
2018-09-20T02:25:31.299Z,20.00
2018-09-20T02:28:00.484Z,20.00
2018-09-20T02:30:29.672Z,20.00
2018-09-20T02:32:58.884Z,19.90
2018-09-20T02:35:28.503Z,19.90
2018-09-20T02:37:57.703Z,19.90
2018-09-20T02:40:26.925Z,19.90
2018-09-20T02:42:56.116Z,19.80
2018-09-20T02:45:25.318Z,19.80
2018-09-20T02:47:54.703Z,19.80
2018-09-20T02:50:23.919Z,19.80
2018-09-20T02:52:53.187Z,19.70
2018-09-20T02:55:22.405Z,19.70
2018-09-20T02:57:51.617Z,19.70
2018-09-20T03:00:20.818Z,19.70
2018-09-20T03:02:50.043Z,19.60
2018-09-20T03:05:19.961Z,19.60
2018-09-20T03:07:49.181Z,19.60
2018-09-20T03:10:18.719Z,19.60
2018-09-20T03:12:47.911Z,19.60
2018-09-20T03:15:17.108Z,19.60
2018-09-20T03:17:46.395Z,19.50
2018-09-20T03:20:15.596Z,19.50
2018-09-20T03:22:44.826Z,19.50
2018-09-20T03:25:14.028Z,19.40
2018-09-20T03:27:43.225Z,19.40
2018-09-20T03:30:12.438Z,19.40
2018-09-20T03:32:41.821Z,19.40
2018-09-20T03:35:11.020Z,19.40
2018-09-20T03:37:41.117Z,19.40
2018-09-20T03:40:10.449Z,19.30
2018-09-20T03:42:39.609Z,19.30
2018-09-20T03:45:08.844Z,19.30
2018-09-20T03:47:38.051Z,19.30
2018-09-20T03:50:07.711Z,19.20
2018-09-20T03:52:36.896Z,19.20
2018-09-20T03:55:06.594Z,19.10
2018-09-20T03:57:35.915Z,19.10
2018-09-20T04:00:05.204Z,19.10
2018-09-20T04:02:34.403Z,19.10
2018-09-20T04:05:03.671Z,19.10
2018-09-20T04:07:32.876Z,19.00
2018-09-20T04:10:02.096Z,19.00
2018-09-20T04:12:31.344Z,19.00
2018-09-20T04:15:00.523Z,19.00
2018-09-20T04:17:30.083Z,18.90
2018-09-20T04:19:59.284Z,18.90
2018-09-20T04:22:28.478Z,18.80
2018-09-20T04:24:57.687Z,18.80
2018-09-20T04:27:26.876Z,18.80
2018-09-20T04:29:56.316Z,18.80
2018-09-20T04:32:25.603Z,18.70
2018-09-20T04:34:55.259Z,18.70
2018-09-20T04:37:24.436Z,18.70
2018-09-20T04:39:54.459Z,18.60
2018-09-20T04:42:23.768Z,18.60
2018-09-20T04:44:52.972Z,18.60
2018-09-20T04:47:22.183Z,18.50
2018-09-20T04:49:51.359Z,18.50
2018-09-20T04:52:20.732Z,18.50
2018-09-20T04:54:49.955Z,18.50
2018-09-20T04:57:19.143Z,18.50
2018-09-20T04:59:48.349Z,18.50
2018-09-20T05:02:17.868Z,18.50
2018-09-20T05:04:47.100Z,18.50
2018-09-20T05:07:16.288Z,18.60
2018-09-20T05:09:45.504Z,18.60
2018-09-20T05:12:14.748Z,18.60
2018-09-20T05:14:43.963Z,18.50
2018-09-20T05:17:13.187Z,18.40
2018-09-20T05:19:42.402Z,18.50
2018-09-20T05:22:11.621Z,18.50
2018-09-20T05:24:41.289Z,18.50
2018-09-20T05:27:10.600Z,18.50
2018-09-20T05:29:39.787Z,18.50
2018-09-20T05:32:09.087Z,18.50
2018-09-20T05:34:38.284Z,18.50
2018-09-20T05:37:07.585Z,18.60
2018-09-20T05:39:36.799Z,18.70
2018-09-20T05:42:06.470Z,18.60
2018-09-20T05:44:35.725Z,18.70
2018-09-20T05:47:05.588Z,18.80
2018-09-20T05:49:34.800Z,18.90
2018-09-20T05:52:04.019Z,18.80
2018-09-20T05:54:33.235Z,18.80
2018-09-20T05:57:02.440Z,18.80
2018-09-20T05:59:31.652Z,18.70
2018-09-20T06:02:00.900Z,18.80
2018-09-20T06:04:30.202Z,18.80
2018-09-20T06:06:59.504Z,18.80
2018-09-20T06:09:29.612Z,18.80
2018-09-20T06:11:58.814Z,18.90
2018-09-20T06:14:28.004Z,18.90
2018-09-20T06:16:57.252Z,18.90
2018-09-20T06:19:26.529Z,19.00
2018-09-20T06:21:55.752Z,19.00
2018-09-20T06:24:24.964Z,19.10
2018-09-20T06:26:54.181Z,19.10
2018-09-20T06:29:23.377Z,19.20
2018-09-20T06:31:52.718Z,19.30
2018-09-20T06:34:21.960Z,19.40
2018-09-20T06:36:51.678Z,19.40
2018-09-20T06:39:20.896Z,19.50
2018-09-20T06:41:50.267Z,19.60
2018-09-20T06:44:19.903Z,19.60
2018-09-20T06:46:49.116Z,19.70
2018-09-20T06:49:18.348Z,19.80
2018-09-20T06:51:47.517Z,19.80
2018-09-20T06:54:17.024Z,19.90
2018-09-20T06:56:46.208Z,19.90
2018-09-20T06:59:15.495Z,19.90
2018-09-20T07:01:45.539Z,20.00
2018-09-20T07:04:14.751Z,20.00
2018-09-20T07:06:43.983Z,20.10
2018-09-20T07:09:14.420Z,20.20
2018-09-20T07:11:43.680Z,20.20
2018-09-20T07:14:12.883Z,20.30
2018-09-20T07:16:42.569Z,20.30
2018-09-20T07:19:12.645Z,20.40
2018-09-20T07:21:41.783Z,20.50
2018-09-20T07:24:11.032Z,20.50
2018-09-20T07:26:40.427Z,20.50
2018-09-20T07:29:09.649Z,20.50
2018-09-20T07:31:42.077Z,20.50
2018-09-20T07:34:13.640Z,20.60
2018-09-20T07:36:42.968Z,20.60
2018-09-20T07:39:12.168Z,20.70
2018-09-20T07:41:41.393Z,20.80
2018-09-20T07:44:10.855Z,20.80
2018-09-20T07:46:40.752Z,20.90
2018-09-20T07:49:12.508Z,21.00
2018-09-20T07:51:43.246Z,21.10
2018-09-20T07:54:16.642Z,21.00
2018-09-20T07:56:48.303Z,21.20
2018-09-20T07:59:17.933Z,21.20
2018-09-20T08:01:47.386Z,21.30
2018-09-20T08:04:16.580Z,21.40
2018-09-20T08:06:45.791Z,21.50
2018-09-20T08:09:14.992Z,21.50
2018-09-20T08:11:44.227Z,21.60
2018-09-20T08:14:13.559Z,21.70
2018-09-20T08:16:42.777Z,21.80
2018-09-20T08:19:12.015Z,21.90
2018-09-20T08:21:41.322Z,21.90
2018-09-20T08:24:11.014Z,22.10
2018-09-20T08:26:40.213Z,22.20
2018-09-20T08:29:09.448Z,22.20
2018-09-20T08:31:38.623Z,22.30
2018-09-20T08:34:07.824Z,22.40
2018-09-20T08:36:42.398Z,22.50
2018-09-20T08:39:14.087Z,22.50
2018-09-20T08:41:49.942Z,22.60
2018-09-20T08:44:20.600Z,22.80
2018-09-20T08:46:51.899Z,22.90
2018-09-20T08:49:21.169Z,22.90
2018-09-20T08:51:53.608Z,23.00
2018-09-20T08:54:26.743Z,23.00
2018-09-20T08:56:56.215Z,23.10
2018-09-20T08:59:26.924Z,23.10
2018-09-20T09:01:56.128Z,23.20
2018-09-20T09:04:25.402Z,23.20
2018-09-20T09:06:54.665Z,23.30
2018-09-20T09:09:27.188Z,23.30
2018-09-20T09:11:56.492Z,23.40
2018-09-20T09:14:25.588Z,23.40
2018-09-20T09:17:00.947Z,23.50
2018-09-20T09:19:31.269Z,23.50
2018-09-20T09:22:00.628Z,23.50
2018-09-20T09:24:30.176Z,23.60
2018-09-20T09:26:59.348Z,23.60
2018-09-20T09:29:29.090Z,23.60
2018-09-20T09:31:58.278Z,23.70
2018-09-20T09:34:27.848Z,23.70
2018-09-20T09:36:57.092Z,23.80
2018-09-20T09:39:26.275Z,23.90
2018-09-20T09:41:55.488Z,24.00
2018-09-20T09:44:24.815Z,24.00
2018-09-20T09:46:54.479Z,24.10
2018-09-20T09:49:23.717Z,24.20
2018-09-20T09:51:52.991Z,24.40
2018-09-20T09:54:22.330Z,24.50
2018-09-20T09:56:52.620Z,24.60
2018-09-20T09:59:21.935Z,24.80
2018-09-20T10:01:51.209Z,24.90
2018-09-20T10:04:20.490Z,25.10
2018-09-20T10:06:49.758Z,25.30
2018-09-20T10:09:18.968Z,25.50
2018-09-20T10:11:48.192Z,25.80
2018-09-20T10:14:19.281Z,26.40
2018-09-20T10:16:48.891Z,27.40
2018-09-20T10:19:19.378Z,28.30
2018-09-20T10:21:48.680Z,29.00
2018-09-20T10:24:18.792Z,29.70
2018-09-20T10:26:48.044Z,30.20
2018-09-20T10:29:17.267Z,30.40
2018-09-20T10:31:46.742Z,30.40
2018-09-20T10:34:15.959Z,30.60
2018-09-20T10:36:45.662Z,30.90
2018-09-20T10:39:14.883Z,31.10
2018-09-20T10:41:44.200Z,30.80
2018-09-20T10:44:17.288Z,30.60
2018-09-20T10:46:47.559Z,30.60
2018-09-20T10:49:16.919Z,30.30
2018-09-20T10:51:46.155Z,30.30
2018-09-20T10:54:15.423Z,30.90
2018-09-20T10:56:45.584Z,31.40
2018-09-20T10:59:14.794Z,31.50
2018-09-20T11:01:44.887Z,31.70
2018-09-20T11:04:14.237Z,32.10
2018-09-20T11:06:43.448Z,32.50
2018-09-20T11:09:12.632Z,32.10
2018-09-20T11:11:42.693Z,31.90
2018-09-20T11:14:19.089Z,31.40
2018-09-20T11:16:48.681Z,30.60
2018-09-20T11:19:17.960Z,30.40
2018-09-20T11:21:47.303Z,30.50
2018-09-20T11:24:16.516Z,30.70
2018-09-20T11:26:45.923Z,30.80
2018-09-20T11:29:15.243Z,31.80
2018-09-20T11:31:44.483Z,32.40
2018-09-20T11:34:15.564Z,33.00
2018-09-20T11:36:45.680Z,32.70
2018-09-20T11:39:14.964Z,33.00
2018-09-20T11:41:44.263Z,33.70
2018-09-20T11:44:13.499Z,33.60
2018-09-20T11:46:47.304Z,33.80
2018-09-20T11:49:19.159Z,34.40
2018-09-20T11:51:48.515Z,35.20
2018-09-20T11:54:17.740Z,36.10
2018-09-20T11:56:48.128Z,36.30
2018-09-20T11:59:17.548Z,36.40
2018-09-20T12:01:47.211Z,36.20
2018-09-20T12:04:19.147Z,36.00
2018-09-20T12:06:48.976Z,36.30
2018-09-20T12:09:18.511Z,36.70
2018-09-20T12:11:48.011Z,37.00
2018-09-20T12:14:18.955Z,37.20
2018-09-20T12:16:48.352Z,36.50
2018-09-20T12:19:21.685Z,36.20
2018-09-20T12:21:51.351Z,36.10
2018-09-20T12:24:20.609Z,35.60
2018-09-20T12:26:50.623Z,35.50
2018-09-20T12:29:19.911Z,35.30
2018-09-20T12:31:49.153Z,35.10
2018-09-20T12:34:18.492Z,35.50
2018-09-20T12:36:47.717Z,35.70
2018-09-20T12:39:17.593Z,36.00
2018-09-20T12:41:47.519Z,36.60
2018-09-20T12:44:18.306Z,37.70
2018-09-20T12:46:47.512Z,38.20
2018-09-20T12:49:17.492Z,37.90
2018-09-20T12:51:47.416Z,37.90
2018-09-20T12:54:17.022Z,38.10
2018-09-20T12:56:46.395Z,37.90
2018-09-20T12:59:18.322Z,37.50
2018-09-20T13:01:48.043Z,37.70
2018-09-20T13:04:17.489Z,38.00
2018-09-20T13:06:47.987Z,38.10
2018-09-20T13:09:18.611Z,38.20
2018-09-20T13:11:48.243Z,38.60
2018-09-20T13:14:17.756Z,38.50
2018-09-20T13:16:47.027Z,38.00
2018-09-20T13:19:16.500Z,37.70
2018-09-20T13:21:46.090Z,38.00
2018-09-20T13:24:15.435Z,38.30
2018-09-20T13:26:44.815Z,38.40
2018-09-20T13:29:14.064Z,38.90
2018-09-20T13:31:43.453Z,39.40
2018-09-20T13:34:12.796Z,39.70
2018-09-20T13:36:51.707Z,40.20
2018-09-20T13:39:21.772Z,39.90
2018-09-20T13:41:51.184Z,40.20
2018-09-20T13:44:22.298Z,40.70
2018-09-20T13:46:51.775Z,40.70
2018-09-20T13:49:21.044Z,40.60
2018-09-20T13:51:50.377Z,40.50
2018-09-20T13:54:19.574Z,40.20
2018-09-20T13:56:48.830Z,40.00
2018-09-20T13:59:18.096Z,40.40
2018-09-20T14:01:47.839Z,40.80
2018-09-20T14:04:18.601Z,40.70
2018-09-20T14:06:47.904Z,40.70
2018-09-20T14:09:17.150Z,40.60
2018-09-20T14:11:50.959Z,41.00
2018-09-20T14:14:20.272Z,41.40
2018-09-20T14:16:50.993Z,41.60
2018-09-20T14:19:21.671Z,41.60
2018-09-20T14:21:50.936Z,41.60
2018-09-20T14:24:21.223Z,41.00
2018-09-20T14:26:50.580Z,41.50
2018-09-20T14:29:23.214Z,42.00
2018-09-20T14:31:52.667Z,42.10
2018-09-20T14:34:21.877Z,41.90
2018-09-20T14:36:51.485Z,41.70
2018-09-20T14:39:20.944Z,41.80
2018-09-20T14:41:50.596Z,41.80
2018-09-20T14:44:19.828Z,41.90
2018-09-20T14:46:49.108Z,41.50
2018-09-20T14:49:20.149Z,41.20
2018-09-20T14:51:49.433Z,41.40
2018-09-20T14:54:19.059Z,41.40
2018-09-20T14:56:48.289Z,41.60
2018-09-20T14:59:21.717Z,41.90
2018-09-20T15:01:51.704Z,42.20
2018-09-20T15:04:24.516Z,42.70
2018-09-20T15:06:55.348Z,42.40
2018-09-20T15:09:26.982Z,42.50
2018-09-20T15:11:56.260Z,42.50
2018-09-20T15:14:29.155Z,42.40
2018-09-20T15:17:01.603Z,42.30
2018-09-20T15:19:30.883Z,42.20
2018-09-20T15:22:00.128Z,42.20
2018-09-20T15:24:29.432Z,42.00
2018-09-20T15:26:58.728Z,41.70
2018-09-20T15:29:28.235Z,41.70
2018-09-20T15:31:57.439Z,41.40
2018-09-20T15:34:26.732Z,41.50
2018-09-20T15:36:55.921Z,41.40
2018-09-20T15:39:26.128Z,41.70
2018-09-20T15:41:55.667Z,42.10
2018-09-20T15:44:24.960Z,41.90
2018-09-20T15:46:54.261Z,41.60
2018-09-20T15:49:23.584Z,40.90
2018-09-20T15:51:53.222Z,39.90
2018-09-20T15:54:22.964Z,39.00
2018-09-20T15:56:52.555Z,38.90
2018-09-20T15:59:21.792Z,38.90
2018-09-20T16:01:51.579Z,39.10
2018-09-20T16:04:21.534Z,39.20
2018-09-20T16:06:51.615Z,38.80
2018-09-20T16:09:21.181Z,38.60
2018-09-20T16:11:50.654Z,38.40
2018-09-20T16:14:20.242Z,38.20
2018-09-20T16:16:49.471Z,37.90
2018-09-20T16:19:18.870Z,37.60
2018-09-20T16:21:48.333Z,37.40
2018-09-20T16:24:18.024Z,37.30
2018-09-20T16:26:49.567Z,37.20
2018-09-20T16:29:42.527Z,37.10
2018-09-20T16:32:28.421Z,37.00
2018-09-20T16:36:08.562Z,36.90
2018-09-20T16:38:47.877Z,36.30
2018-09-20T16:41:21.024Z,35.50
2018-09-20T16:43:52.551Z,34.90
2018-09-20T16:46:23.042Z,34.50
2018-09-20T16:48:52.887Z,34.10
2018-09-20T16:51:23.449Z,33.80
2018-09-20T16:53:54.085Z,33.60
2018-09-20T16:56:23.600Z,33.40
2018-09-20T16:58:53.711Z,33.20
2018-09-20T17:01:23.806Z,33.00
2018-09-20T17:03:53.539Z,32.80
2018-09-20T17:06:22.912Z,32.50
2018-09-20T17:08:52.287Z,32.40
2018-09-20T17:11:25.621Z,32.20
2018-09-20T17:13:55.386Z,32.00
2018-09-20T17:16:26.916Z,31.80
2018-09-20T17:18:57.448Z,31.50
2018-09-20T17:21:27.961Z,31.40
2018-09-20T17:23:57.344Z,31.20
2018-09-20T17:26:26.884Z,31.00
2018-09-20T17:28:56.180Z,30.90
2018-09-20T17:31:26.684Z,30.70
2018-09-20T17:33:56.105Z,30.60
2018-09-20T17:36:26.054Z,30.50
2018-09-20T17:38:56.756Z,30.30
2018-09-20T17:41:29.092Z,30.20
2018-09-20T17:44:02.672Z,30.10
2018-09-20T17:46:33.708Z,29.90
2018-09-20T17:49:03.155Z,29.90
2018-09-20T17:51:32.987Z,29.70
2018-09-20T17:54:02.682Z,29.60
2018-09-20T17:56:32.407Z,29.40
2018-09-20T17:59:02.124Z,29.30
2018-09-20T18:01:31.491Z,29.20
2018-09-20T18:04:02.016Z,29.10
2018-09-20T18:06:31.389Z,29.00
2018-09-20T18:09:00.624Z,28.90
2018-09-20T18:11:29.924Z,28.80
2018-09-20T18:13:59.215Z,28.70
2018-09-20T18:16:28.628Z,28.60
2018-09-20T18:18:58.150Z,28.50
2018-09-20T18:21:28.630Z,28.40
2018-09-20T18:23:58.954Z,28.30
2018-09-20T18:26:29.457Z,28.20
2018-09-20T18:28:59.028Z,28.10
2018-09-20T18:31:29.803Z,28.00
2018-09-20T18:33:59.272Z,27.80
2018-09-20T18:36:28.747Z,27.70
2018-09-20T18:38:58.069Z,27.60
2018-09-20T18:41:27.360Z,27.50
2018-09-20T18:44:01.315Z,27.40
2018-09-20T18:46:33.052Z,27.40
2018-09-20T18:49:02.447Z,27.30
2018-09-20T18:51:31.913Z,27.20
2018-09-20T18:54:03.688Z,27.10
2018-09-20T18:56:32.959Z,27.00
2018-09-20T18:59:04.480Z,26.90
2018-09-20T19:01:33.816Z,26.80
2018-09-20T19:04:04.312Z,26.70
2018-09-20T19:06:34.220Z,26.60
2018-09-20T19:09:03.737Z,26.60
2018-09-20T19:11:33.107Z,26.50
2018-09-20T19:14:02.458Z,26.40
2018-09-20T19:16:31.752Z,26.40
2018-09-20T19:19:01.036Z,26.30
2018-09-20T19:21:30.364Z,26.20
2018-09-20T19:23:59.628Z,26.10
2018-09-20T19:26:28.897Z,26.00
2018-09-20T19:28:58.319Z,25.90
2018-09-20T19:31:27.820Z,25.90
2018-09-20T19:33:57.091Z,25.80
2018-09-20T19:36:26.448Z,25.70
2018-09-20T19:38:55.765Z,25.70
2018-09-20T19:41:25.007Z,25.70
2018-09-20T19:43:54.353Z,25.60
2018-09-20T19:46:24.828Z,25.50
2018-09-20T19:48:54.128Z,25.50
2018-09-20T19:51:23.506Z,25.40
2018-09-20T19:53:54.351Z,25.40
2018-09-20T19:56:32.454Z,25.30
2018-09-20T19:59:03.971Z,25.30
2018-09-20T20:01:33.263Z,25.30
2018-09-20T20:04:03.378Z,25.20
2018-09-20T20:06:35.487Z,25.10
2018-09-20T20:09:09.427Z,25.10
2018-09-20T20:12:29.773Z,25.00
2018-09-20T20:14:59.037Z,25.00
2018-09-20T20:17:28.348Z,24.90
2018-09-20T20:19:58.876Z,24.80
2018-09-20T20:22:30.300Z,24.80
2018-09-20T20:24:59.595Z,24.70
2018-09-20T20:27:29.176Z,24.60
2018-09-20T20:29:58.529Z,24.60
2018-09-20T20:32:29.994Z,24.60
2018-09-20T20:35:00.493Z,24.50
2018-09-20T20:37:31.960Z,24.50
2018-09-20T20:40:01.260Z,24.50
2018-09-20T20:42:36.136Z,24.40
2018-09-20T20:45:05.746Z,24.40
2018-09-20T20:47:35.327Z,24.40
2018-09-20T20:50:04.753Z,24.30
2018-09-20T20:52:34.191Z,24.30
2018-09-20T20:55:03.564Z,24.20
2018-09-20T20:57:34.361Z,24.10
2018-09-20T21:00:03.724Z,24.00
2018-09-20T21:02:32.911Z,23.90
2018-09-20T21:05:02.181Z,23.90
2018-09-20T21:07:31.570Z,23.90
2018-09-20T21:10:01.756Z,23.90
2018-09-20T21:12:31.076Z,23.80
2018-09-20T21:15:00.288Z,23.80
2018-09-20T21:17:29.685Z,23.70
2018-09-20T21:19:58.933Z,23.60
2018-09-20T21:22:28.125Z,23.60
2018-09-20T21:24:57.568Z,23.50
2018-09-20T21:27:26.840Z,23.40
2018-09-20T21:29:56.036Z,23.30
2018-09-20T21:32:25.231Z,23.30
2018-09-20T21:34:54.480Z,23.20
2018-09-20T21:37:25.920Z,23.10
2018-09-20T21:39:55.183Z,23.10
2018-09-20T21:42:24.378Z,23.10
2018-09-20T21:44:53.576Z,23.10
2018-09-20T21:47:23.384Z,23.10
2018-09-20T21:49:52.715Z,23.00
2018-09-20T21:52:21.979Z,23.00
2018-09-20T21:54:51.253Z,23.00
2018-09-20T21:57:20.951Z,22.90
2018-09-20T21:59:50.210Z,22.90
2018-09-20T22:02:24.996Z,22.90
2018-09-20T22:04:54.380Z,22.90
2018-09-20T22:07:23.583Z,22.80
2018-09-20T22:09:53.016Z,22.80
2018-09-20T22:12:22.191Z,22.80
2018-09-20T22:14:51.857Z,22.70
2018-09-20T22:17:21.110Z,22.70
2018-09-20T22:19:50.431Z,22.70
2018-09-20T22:22:19.623Z,22.70
2018-09-20T22:24:48.895Z,22.60
2018-09-20T22:27:18.214Z,22.60
2018-09-20T22:29:47.455Z,22.50
2018-09-20T22:32:16.685Z,22.50
2018-09-20T22:34:45.854Z,22.40
2018-09-20T22:37:15.284Z,22.40
2018-09-20T22:39:44.551Z,22.30
2018-09-20T22:42:13.676Z,22.30
2018-09-20T22:44:42.918Z,22.20
2018-09-20T22:47:12.176Z,22.20
2018-09-20T22:49:41.400Z,22.20
2018-09-20T22:52:10.591Z,22.10
2018-09-20T22:54:39.820Z,22.10
2018-09-20T22:57:09.007Z,22.00
2018-09-20T22:59:38.515Z,22.00
2018-09-20T23:02:07.792Z,21.90
2018-09-20T23:04:37.080Z,21.90
2018-09-20T23:07:06.459Z,21.80
2018-09-20T23:09:36.060Z,21.80
2018-09-20T23:12:05.619Z,21.80
2018-09-20T23:14:35.237Z,21.70
2018-09-20T23:17:04.553Z,21.70
2018-09-20T23:19:33.736Z,21.70
2018-09-20T23:22:02.954Z,21.70
2018-09-20T23:24:32.160Z,21.70
2018-09-20T23:27:01.358Z,21.60
2018-09-20T23:29:30.551Z,21.60
2018-09-20T23:31:59.876Z,21.60
2018-09-20T23:34:29.183Z,21.50
2018-09-20T23:36:58.376Z,21.50
2018-09-20T23:39:27.589Z,21.50
2018-09-20T23:41:56.779Z,21.40
2018-09-20T23:44:25.968Z,21.40
2018-09-20T23:46:55.176Z,21.40
2018-09-20T23:49:24.370Z,21.40
2018-09-20T23:51:53.996Z,21.30
2018-09-20T23:54:23.255Z,21.30
2018-09-20T23:56:52.516Z,21.30
2018-09-20T23:59:21.703Z,21.20
